sensor_id;sensor_type;location;lat;lon;timestamp;P1;durP1;ratioP1;P2;durP2;ratioP2
42904;SDS011;28550;51.228;4.528;2023-08-07T00:00:04;16.17;;;3.97;;
42904;SDS011;28550;51.228;4.528;2023-08-07T00:02:30;12.38;;;3.67;;
42904;SDS011;28550;51.228;4.528;2023-08-07T00:05:15;13.85;;;4.47;;
42904;SDS011;28550;51.228;4.528;2023-08-07T00:07:55;13.98;;;3.67;;
42904;SDS011;28550;51.228;4.528;2023-08-07T00:10:40;14.77;;;4.00;;
42904;SDS011;28550;51.228;4.528;2023-08-07T00:13:10;12.77;;;3.30;;
42904;SDS011;28550;51.228;4.528;2023-08-07T00:15:45;11.65;;;4.00;;
42904;SDS011;28550;51.228;4.528;2023-08-07T00:18:32;9.82;;;4.03;;
42904;SDS011;28550;51.228;4.528;2023-08-07T00:21:00;17.25;;;4.10;;
42904;SDS011;28550;51.228;4.528;2023-08-07T00:23:38;10.07;;;4.22;;
42904;SDS011;28550;51.228;4.528;2023-08-07T00:35:00;8.40;;;3.45;;
42904;SDS011;28550;51.228;4.528;2023-08-07T00:43:50;19.05;;;4.30;;
42904;SDS011;28550;51.228;4.528;2023-08-07T00:46:24;12.30;;;3.58;;
42904;SDS011;28550;51.228;4.528;2023-08-07T00:49:09;9.23;;;3.10;;
42904;SDS011;28550;51.228;4.528;2023-08-07T00:51:39;10.27;;;3.35;;
42904;SDS011;28550;51.228;4.528;2023-08-07T00:54:15;12.73;;;3.47;;
42904;SDS011;28550;51.228;4.528;2023-08-07T00:57:29;13.70;;;4.38;;
42904;SDS011;28550;51.228;4.528;2023-08-07T01:25:58;14.32;;;3.88;;
42904;SDS011;28550;51.228;4.528;2023-08-07T01:32:00;14.05;;;3.60;;
42904;SDS011;28550;51.228;4.528;2023-08-07T01:35:05;13.25;;;3.83;;
42904;SDS011;28550;51.228;4.528;2023-08-07T01:38:15;8.73;;;3.03;;
42904;SDS011;28550;51.228;4.528;2023-08-07T01:40:55;8.32;;;3.17;;
42904;SDS011;28550;51.228;4.528;2023-08-07T01:43:22;9.13;;;3.50;;
42904;SDS011;28550;51.228;4.528;2023-08-07T01:46:16;12.65;;;4.55;;
42904;SDS011;28550;51.228;4.528;2023-08-07T01:49:03;11.38;;;3.35;;
42904;SDS011;28550;51.228;4.528;2023-08-07T01:51:29;10.10;;;3.13;;
42904;SDS011;28550;51.228;4.528;2023-08-07T01:53:57;10.15;;;3.22;;
42904;SDS011;28550;51.228;4.528;2023-08-07T01:56:23;7.90;;;3.15;;
42904;SDS011;28550;51.228;4.528;2023-08-07T01:58:49;13.98;;;3.40;;
42904;SDS011;28550;51.228;4.528;2023-08-07T02:01:17;12.60;;;3.05;;
42904;SDS011;28550;51.228;4.528;2023-08-07T02:07:24;12.52;;;3.22;;
42904;SDS011;28550;51.228;4.528;2023-08-07T02:17:01;9.90;;;3.50;;
42904;SDS011;28550;51.228;4.528;2023-08-07T02:19:35;7.45;;;3.25;;
42904;SDS011;28550;51.228;4.528;2023-08-07T02:28:17;15.52;;;3.47;;
42904;SDS011;28550;51.228;4.528;2023-08-07T02:31:44;9.20;;;3.75;;
42904;SDS011;28550;51.228;4.528;2023-08-07T02:37:19;10.20;;;3.40;;
42904;SDS011;28550;51.228;4.528;2023-08-07T02:53:07;9.40;;;3.42;;
42904;SDS011;28550;51.228;4.528;2023-08-07T02:56:00;6.78;;;2.47;;
42904;SDS011;28550;51.228;4.528;2023-08-07T02:58:26;11.30;;;3.10;;
42904;SDS011;28550;51.228;4.528;2023-08-07T03:04:32;12.93;;;3.13;;
42904;SDS011;28550;51.228;4.528;2023-08-07T03:10:31;15.30;;;3.25;;
42904;SDS011;28550;51.228;4.528;2023-08-07T03:13:31;11.52;;;2.97;;
42904;SDS011;28550;51.228;4.528;2023-08-07T03:16:30;9.88;;;3.20;;
42904;SDS011;28550;51.228;4.528;2023-08-07T03:26:10;12.47;;;3.93;;
42904;SDS011;28550;51.228;4.528;2023-08-07T03:28:39;12.10;;;3.95;;
42904;SDS011;28550;51.228;4.528;2023-08-07T03:31:35;16.05;;;4.50;;
42904;SDS011;28550;51.228;4.528;2023-08-07T03:34:49;13.30;;;3.83;;
42904;SDS011;28550;51.228;4.528;2023-08-07T03:41:13;11.57;;;3.80;;
42904;SDS011;28550;51.228;4.528;2023-08-07T03:44:11;12.90;;;3.88;;
42904;SDS011;28550;51.228;4.528;2023-08-07T03:54:03;7.40;;;3.17;;
42904;SDS011;28550;51.228;4.528;2023-08-07T03:56:36;11.27;;;3.88;;
42904;SDS011;28550;51.228;4.528;2023-08-07T03:59:50;12.07;;;3.72;;
42904;SDS011;28550;51.228;4.528;2023-08-07T04:02:37;12.10;;;4.03;;
42904;SDS011;28550;51.228;4.528;2023-08-07T04:05:21;8.98;;;4.03;;
42904;SDS011;28550;51.228;4.528;2023-08-07T04:08:07;11.25;;;3.70;;
42904;SDS011;28550;51.228;4.528;2023-08-07T04:11:05;11.45;;;3.38;;
42904;SDS011;28550;51.228;4.528;2023-08-07T04:13:35;8.95;;;4.03;;
42904;SDS011;28550;51.228;4.528;2023-08-07T04:16:24;12.38;;;4.47;;
42904;SDS011;28550;51.228;4.528;2023-08-07T04:19:02;12.48;;;3.85;;
42904;SDS011;28550;51.228;4.528;2023-08-07T04:21:46;12.27;;;3.63;;
42904;SDS011;28550;51.228;4.528;2023-08-07T04:24:12;8.95;;;3.88;;
42904;SDS011;28550;51.228;4.528;2023-08-07T04:26:39;10.30;;;4.30;;
42904;SDS011;28550;51.228;4.528;2023-08-07T04:35:18;10.65;;;4.25;;
42904;SDS011;28550;51.228;4.528;2023-08-07T04:37:59;8.88;;;4.40;;
42904;SDS011;28550;51.228;4.528;2023-08-07T04:49:57;7.43;;;3.97;;
42904;SDS011;28550;51.228;4.528;2023-08-07T04:55:57;13.60;;;4.68;;
42904;SDS011;28550;51.228;4.528;2023-08-07T05:02:05;9.05;;;3.78;;
42904;SDS011;28550;51.228;4.528;2023-08-07T05:04:37;10.75;;;3.90;;
42904;SDS011;28550;51.228;4.528;2023-08-07T05:07:15;13.55;;;3.80;;
42904;SDS011;28550;51.228;4.528;2023-08-07T05:18:45;10.68;;;4.10;;
42904;SDS011;28550;51.228;4.528;2023-08-07T05:21:34;7.30;;;3.45;;
42904;SDS011;28550;51.228;4.528;2023-08-07T05:27:12;14.80;;;4.13;;
42904;SDS011;28550;51.228;4.528;2023-08-07T05:30:15;12.05;;;4.30;;
42904;SDS011;28550;51.228;4.528;2023-08-07T05:33:05;7.00;;;3.55;;
42904;SDS011;28550;51.228;4.528;2023-08-07T05:38:37;11.43;;;4.32;;
42904;SDS011;28550;51.228;4.528;2023-08-07T05:48:05;13.05;;;4.30;;
42904;SDS011;28550;51.228;4.528;2023-08-07T05:50:56;8.63;;;3.55;;
42904;SDS011;28550;51.228;4.528;2023-08-07T05:54:06;10.48;;;3.88;;
42904;SDS011;28550;51.228;4.528;2023-08-07T05:57:09;10.10;;;3.28;;
42904;SDS011;28550;51.228;4.528;2023-08-07T06:06:22;7.60;;;3.53;;
42904;SDS011;28550;51.228;4.528;2023-08-07T06:08:56;7.32;;;3.67;;
42904;SDS011;28550;51.228;4.528;2023-08-07T06:12:06;8.90;;;3.47;;
42904;SDS011;28550;51.228;4.528;2023-08-07T06:17:24;14.68;;;3.53;;
42904;SDS011;28550;51.228;4.528;2023-08-07T06:22:24;10.15;;;3.28;;
42904;SDS011;28550;51.228;4.528;2023-08-07T06:24:53;9.27;;;4.03;;
42904;SDS011;28550;51.228;4.528;2023-08-07T06:30:20;13.68;;;3.92;;
42904;SDS011;28550;51.228;4.528;2023-08-07T06:32:56;8.43;;;4.20;;
42904;SDS011;28550;51.228;4.528;2023-08-07T06:35:30;7.95;;;2.75;;
42904;SDS011;28550;51.228;4.528;2023-08-07T06:38:26;9.40;;;4.07;;
42904;SDS011;28550;51.228;4.528;2023-08-07T06:41:02;10.02;;;3.88;;
42904;SDS011;28550;51.228;4.528;2023-08-07T06:43:35;13.90;;;4.18;;
42904;SDS011;28550;51.228;4.528;2023-08-07T06:46:06;12.65;;;3.80;;
42904;SDS011;28550;51.228;4.528;2023-08-07T06:48:32;8.52;;;3.58;;
42904;SDS011;28550;51.228;4.528;2023-08-07T06:53:59;7.20;;;3.55;;
42904;SDS011;28550;51.228;4.528;2023-08-07T06:56:34;13.77;;;3.63;;
42904;SDS011;28550;51.228;4.528;2023-08-07T06:59:19;7.32;;;3.35;;
42904;SDS011;28550;51.228;4.528;2023-08-07T07:02:03;7.07;;;3.20;;
42904;SDS011;28550;51.228;4.528;2023-08-07T07:04:47;9.10;;;3.15;;
42904;SDS011;28550;51.228;4.528;2023-08-07T07:07:16;15.90;;;4.35;;
42904;SDS011;28550;51.228;4.528;2023-08-07T07:10:04;11.07;;;3.95;;
42904;SDS011;28550;51.228;4.528;2023-08-07T07:13:05;9.48;;;3.13;;
42904;SDS011;28550;51.228;4.528;2023-08-07T07:22:15;6.40;;;2.83;;
42904;SDS011;28550;51.228;4.528;2023-08-07T07:24:48;10.50;;;3.33;;
42904;SDS011;28550;51.228;4.528;2023-08-07T07:27:17;7.60;;;3.13;;
42904;SDS011;28550;51.228;4.528;2023-08-07T07:29:47;10.15;;;3.08;;
42904;SDS011;28550;51.228;4.528;2023-08-07T07:32:21;8.23;;;2.97;;
42904;SDS011;28550;51.228;4.528;2023-08-07T07:34:50;6.75;;;2.88;;
42904;SDS011;28550;51.228;4.528;2023-08-07T07:37:20;8.55;;;2.80;;
42904;SDS011;28550;51.228;4.528;2023-08-07T07:39:49;7.40;;;3.45;;
42904;SDS011;28550;51.228;4.528;2023-08-07T07:42:18;6.57;;;3.00;;
42904;SDS011;28550;51.228;4.528;2023-08-07T07:44:46;8.85;;;3.03;;
42904;SDS011;28550;51.228;4.528;2023-08-07T07:47:12;10.50;;;2.78;;
42904;SDS011;28550;51.228;4.528;2023-08-07T07:49:38;9.45;;;3.28;;
42904;SDS011;28550;51.228;4.528;2023-08-07T07:52:04;9.98;;;2.83;;
42904;SDS011;28550;51.228;4.528;2023-08-07T07:54:31;14.68;;;4.15;;
42904;SDS011;28550;51.228;4.528;2023-08-07T07:57:07;7.40;;;3.25;;
42904;SDS011;28550;51.228;4.528;2023-08-07T07:59:38;6.10;;;2.78;;
42904;SDS011;28550;51.228;4.528;2023-08-07T08:02:04;8.40;;;3.20;;
42904;SDS011;28550;51.228;4.528;2023-08-07T08:04:34;8.95;;;2.83;;
42904;SDS011;28550;51.228;4.528;2023-08-07T08:07:00;6.32;;;3.17;;
42904;SDS011;28550;51.228;4.528;2023-08-07T08:09:27;10.75;;;3.63;;
42904;SDS011;28550;51.228;4.528;2023-08-07T08:11:55;10.80;;;3.53;;
42904;SDS011;28550;51.228;4.528;2023-08-07T08:14:34;9.70;;;3.42;;
42904;SDS011;28550;51.228;4.528;2023-08-07T08:17:00;7.20;;;2.70;;
42904;SDS011;28550;51.228;4.528;2023-08-07T08:19:52;10.20;;;2.88;;
42904;SDS011;28550;51.228;4.528;2023-08-07T08:22:20;8.05;;;2.55;;
42904;SDS011;28550;51.228;4.528;2023-08-07T08:24:52;6.60;;;2.88;;
42904;SDS011;28550;51.228;4.528;2023-08-07T08:27:23;7.65;;;2.90;;
42904;SDS011;28550;51.228;4.528;2023-08-07T08:29:50;6.13;;;2.70;;
42904;SDS011;28550;51.228;4.528;2023-08-07T08:32:23;7.55;;;3.22;;
42904;SDS011;28550;51.228;4.528;2023-08-07T08:34:52;5.72;;;2.38;;
42904;SDS011;28550;51.228;4.528;2023-08-07T08:37:20;6.20;;;3.33;;
42904;SDS011;28550;51.228;4.528;2023-08-07T08:39:57;7.05;;;3.10;;
42904;SDS011;28550;51.228;4.528;2023-08-07T08:42:23;9.00;;;3.10;;
42904;SDS011;28550;51.228;4.528;2023-08-07T08:44:52;9.27;;;2.70;;
42904;SDS011;28550;51.228;4.528;2023-08-07T08:47:25;8.10;;;2.47;;
42904;SDS011;28550;51.228;4.528;2023-08-07T08:50:07;6.75;;;2.30;;
42904;SDS011;28550;51.228;4.528;2023-08-07T08:52:37;7.90;;;2.90;;
42904;SDS011;28550;51.228;4.528;2023-08-07T08:55:07;7.63;;;2.90;;
42904;SDS011;28550;51.228;4.528;2023-08-07T08:57:34;13.00;;;3.13;;
42904;SDS011;28550;51.228;4.528;2023-08-07T09:00:00;11.63;;;3.53;;
42904;SDS011;28550;51.228;4.528;2023-08-07T09:02:39;11.40;;;3.22;;
42904;SDS011;28550;51.228;4.528;2023-08-07T09:05:08;7.07;;;2.90;;
42904;SDS011;28550;51.228;4.528;2023-08-07T09:07:40;6.82;;;2.90;;
42904;SDS011;28550;51.228;4.528;2023-08-07T09:10:12;10.65;;;3.20;;
42904;SDS011;28550;51.228;4.528;2023-08-07T09:12:45;8.57;;;2.70;;
42904;SDS011;28550;51.228;4.528;2023-08-07T09:15:23;10.77;;;4.05;;
42904;SDS011;28550;51.228;4.528;2023-08-07T09:18:00;9.13;;;2.90;;
42904;SDS011;28550;51.228;4.528;2023-08-07T09:20:30;7.13;;;2.90;;
42904;SDS011;28550;51.228;4.528;2023-08-07T09:22:56;5.22;;;2.55;;
42904;SDS011;28550;51.228;4.528;2023-08-07T09:25:32;9.68;;;2.78;;
42904;SDS011;28550;51.228;4.528;2023-08-07T09:28:05;6.97;;;2.42;;
42904;SDS011;28550;51.228;4.528;2023-08-07T09:30:35;4.95;;;2.50;;
42904;SDS011;28550;51.228;4.528;2023-08-07T09:33:12;7.55;;;2.55;;
42904;SDS011;28550;51.228;4.528;2023-08-07T09:35:40;8.35;;;2.58;;
42904;SDS011;28550;51.228;4.528;2023-08-07T09:38:23;7.05;;;2.90;;
42904;SDS011;28550;51.228;4.528;2023-08-07T09:43:53;7.28;;;2.85;;
42904;SDS011;28550;51.228;4.528;2023-08-07T09:46:19;4.90;;;2.45;;
42904;SDS011;28550;51.228;4.528;2023-08-07T09:48:44;3.92;;;2.13;;
42904;SDS011;28550;51.228;4.528;2023-08-07T09:51:10;5.97;;;2.72;;
42904;SDS011;28550;51.228;4.528;2023-08-07T09:53:47;5.82;;;2.65;;
42904;SDS011;28550;51.228;4.528;2023-08-07T09:56:18;10.07;;;3.08;;
42904;SDS011;28550;51.228;4.528;2023-08-07T09:58:47;5.97;;;3.22;;
42904;SDS011;28550;51.228;4.528;2023-08-07T10:01:16;3.50;;;2.15;;
42904;SDS011;28550;51.228;4.528;2023-08-07T10:03:46;6.03;;;2.15;;
42904;SDS011;28550;51.228;4.528;2023-08-07T10:06:21;6.00;;;2.22;;
42904;SDS011;28550;51.228;4.528;2023-08-07T10:08:51;5.32;;;2.40;;
42904;SDS011;28550;51.228;4.528;2023-08-07T10:11:24;4.50;;;2.20;;
42904;SDS011;28550;51.228;4.528;2023-08-07T10:13:53;6.57;;;2.47;;
42904;SDS011;28550;51.228;4.528;2023-08-07T10:16:22;5.25;;;2.50;;
42904;SDS011;28550;51.228;4.528;2023-08-07T10:18:48;5.10;;;1.88;;
42904;SDS011;28550;51.228;4.528;2023-08-07T10:21:20;4.22;;;2.53;;
42904;SDS011;28550;51.228;4.528;2023-08-07T10:23:47;7.18;;;2.72;;
42904;SDS011;28550;51.228;4.528;2023-08-07T10:26:17;7.53;;;2.30;;
42904;SDS011;28550;51.228;4.528;2023-08-07T10:28:48;4.13;;;2.17;;
42904;SDS011;28550;51.228;4.528;2023-08-07T10:31:16;4.68;;;2.40;;
42904;SDS011;28550;51.228;4.528;2023-08-07T10:33:43;4.45;;;2.17;;
42904;SDS011;28550;51.228;4.528;2023-08-07T10:36:09;4.57;;;2.28;;
42904;SDS011;28550;51.228;4.528;2023-08-07T10:38:36;7.05;;;2.22;;
42904;SDS011;28550;51.228;4.528;2023-08-07T10:41:04;4.35;;;1.75;;
42904;SDS011;28550;51.228;4.528;2023-08-07T10:43:36;4.05;;;2.05;;
42904;SDS011;28550;51.228;4.528;2023-08-07T10:46:14;4.03;;;2.25;;
42904;SDS011;28550;51.228;4.528;2023-08-07T10:48:44;6.00;;;2.42;;
42904;SDS011;28550;51.228;4.528;2023-08-07T10:51:17;4.40;;;2.25;;
42904;SDS011;28550;51.228;4.528;2023-08-07T10:53:44;5.45;;;2.40;;
42904;SDS011;28550;51.228;4.528;2023-08-07T10:56:28;5.40;;;2.05;;
42904;SDS011;28550;51.228;4.528;2023-08-07T10:59:10;4.22;;;2.05;;
42904;SDS011;28550;51.228;4.528;2023-08-07T11:01:40;3.90;;;2.00;;
42904;SDS011;28550;51.228;4.528;2023-08-07T11:04:15;2.60;;;1.92;;
42904;SDS011;28550;51.228;4.528;2023-08-07T11:06:41;8.43;;;2.30;;
42904;SDS011;28550;51.228;4.528;2023-08-07T11:09:09;2.22;;;1.75;;
42904;SDS011;28550;51.228;4.528;2023-08-07T11:11:39;4.03;;;2.05;;
42904;SDS011;28550;51.228;4.528;2023-08-07T11:14:13;2.38;;;1.75;;
42904;SDS011;28550;51.228;4.528;2023-08-07T11:16:40;3.33;;;1.73;;
42904;SDS011;28550;51.228;4.528;2023-08-07T11:19:07;4.20;;;2.25;;
42904;SDS011;28550;51.228;4.528;2023-08-07T11:21:34;3.35;;;2.10;;
42904;SDS011;28550;51.228;4.528;2023-08-07T11:24:01;3.25;;;2.03;;
42904;SDS011;28550;51.228;4.528;2023-08-07T11:26:27;4.80;;;1.73;;
42904;SDS011;28550;51.228;4.528;2023-08-07T11:28:56;2.22;;;1.67;;
42904;SDS011;28550;51.228;4.528;2023-08-07T11:31:22;4.70;;;2.05;;
42904;SDS011;28550;51.228;4.528;2023-08-07T11:33:50;5.15;;;2.03;;
42904;SDS011;28550;51.228;4.528;2023-08-07T11:36:17;3.90;;;1.80;;
42904;SDS011;28550;51.228;4.528;2023-08-07T11:38:43;4.93;;;1.90;;
42904;SDS011;28550;51.228;4.528;2023-08-07T11:41:10;2.88;;;2.10;;
42904;SDS011;28550;51.228;4.528;2023-08-07T11:43:44;5.60;;;2.20;;
42904;SDS011;28550;51.228;4.528;2023-08-07T11:46:12;3.47;;;2.13;;
42904;SDS011;28550;51.228;4.528;2023-08-07T11:48:41;3.72;;;2.05;;
42904;SDS011;28550;51.228;4.528;2023-08-07T11:51:08;4.25;;;2.30;;
42904;SDS011;28550;51.228;4.528;2023-08-07T11:53:35;2.72;;;1.80;;
42904;SDS011;28550;51.228;4.528;2023-08-07T11:56:06;4.47;;;1.98;;
42904;SDS011;28550;51.228;4.528;2023-08-07T11:58:44;3.20;;;2.03;;
42904;SDS011;28550;51.228;4.528;2023-08-07T12:01:21;6.95;;;2.40;;
42904;SDS011;28550;51.228;4.528;2023-08-07T12:03:51;5.18;;;2.10;;
42904;SDS011;28550;51.228;4.528;2023-08-07T12:06:18;4.70;;;2.00;;
42904;SDS011;28550;51.228;4.528;2023-08-07T12:08:48;3.00;;;2.17;;
42904;SDS011;28550;51.228;4.528;2023-08-07T12:11:24;2.05;;;1.65;;
42904;SDS011;28550;51.228;4.528;2023-08-07T12:13:51;3.33;;;1.88;;
42904;SDS011;28550;51.228;4.528;2023-08-07T12:16:17;3.45;;;1.83;;
42904;SDS011;28550;51.228;4.528;2023-08-07T12:18:47;8.75;;;1.73;;
42904;SDS011;28550;51.228;4.528;2023-08-07T12:21:17;3.63;;;1.52;;
42904;SDS011;28550;51.228;4.528;2023-08-07T12:23:48;3.40;;;1.45;;
42904;SDS011;28550;51.228;4.528;2023-08-07T12:26:14;2.72;;;1.58;;
42904;SDS011;28550;51.228;4.528;2023-08-07T12:28:40;4.03;;;1.52;;
42904;SDS011;28550;51.228;4.528;2023-08-07T12:31:08;2.60;;;1.50;;
42904;SDS011;28550;51.228;4.528;2023-08-07T12:33:34;1.52;;;1.42;;
42904;SDS011;28550;51.228;4.528;2023-08-07T12:36:01;3.45;;;1.63;;
42904;SDS011;28550;51.228;4.528;2023-08-07T12:38:28;4.03;;;1.60;;
42904;SDS011;28550;51.228;4.528;2023-08-07T12:40:54;4.43;;;1.67;;
42904;SDS011;28550;51.228;4.528;2023-08-07T12:43:20;4.55;;;1.80;;
42904;SDS011;28550;51.228;4.528;2023-08-07T12:45:47;7.18;;;1.92;;
42904;SDS011;28550;51.228;4.528;2023-08-07T12:48:12;4.90;;;1.70;;
42904;SDS011;28550;51.228;4.528;2023-08-07T12:50:38;3.50;;;1.88;;
42904;SDS011;28550;51.228;4.528;2023-08-07T12:53:04;1.73;;;1.50;;
42904;SDS011;28550;51.228;4.528;2023-08-07T12:55:31;5.75;;;1.55;;
42904;SDS011;28550;51.228;4.528;2023-08-07T12:57:56;3.28;;;1.88;;
42904;SDS011;28550;51.228;4.528;2023-08-07T13:00:22;3.42;;;1.65;;
42904;SDS011;28550;51.228;4.528;2023-08-07T13:02:49;3.90;;;1.70;;
42904;SDS011;28550;51.228;4.528;2023-08-07T13:05:16;3.50;;;1.83;;
42904;SDS011;28550;51.228;4.528;2023-08-07T13:07:43;3.92;;;1.58;;
42904;SDS011;28550;51.228;4.528;2023-08-07T13:10:10;2.05;;;1.40;;
42904;SDS011;28550;51.228;4.528;2023-08-07T13:12:38;2.00;;;1.60;;
42904;SDS011;28550;51.228;4.528;2023-08-07T13:15:07;2.38;;;1.50;;
42904;SDS011;28550;51.228;4.528;2023-08-07T13:17:35;2.55;;;1.67;;
42904;SDS011;28550;51.228;4.528;2023-08-07T13:20:02;2.95;;;1.88;;
42904;SDS011;28550;51.228;4.528;2023-08-07T13:22:33;2.40;;;1.67;;
42904;SDS011;28550;51.228;4.528;2023-08-07T13:24:59;2.65;;;1.30;;
42904;SDS011;28550;51.228;4.528;2023-08-07T13:27:31;2.75;;;1.52;;
42904;SDS011;28550;51.228;4.528;2023-08-07T13:29:57;3.50;;;1.25;;
42904;SDS011;28550;51.228;4.528;2023-08-07T13:32:22;5.43;;;1.60;;
42904;SDS011;28550;51.228;4.528;2023-08-07T13:34:48;3.50;;;1.30;;
42904;SDS011;28550;51.228;4.528;2023-08-07T13:37:14;6.03;;;1.95;;
42904;SDS011;28550;51.228;4.528;2023-08-07T13:39:40;4.30;;;1.65;;
42904;SDS011;28550;51.228;4.528;2023-08-07T13:42:06;2.95;;;1.40;;
42904;SDS011;28550;51.228;4.528;2023-08-07T13:44:33;4.57;;;1.90;;
42904;SDS011;28550;51.228;4.528;2023-08-07T13:46:58;6.97;;;1.75;;
42904;SDS011;28550;51.228;4.528;2023-08-07T13:49:24;3.60;;;1.70;;
42904;SDS011;28550;51.228;4.528;2023-08-07T13:51:53;2.25;;;1.40;;
42904;SDS011;28550;51.228;4.528;2023-08-07T13:54:20;2.95;;;1.40;;
42904;SDS011;28550;51.228;4.528;2023-08-07T13:59:44;2.85;;;1.20;;
42904;SDS011;28550;51.228;4.528;2023-08-07T14:02:09;3.83;;;1.45;;
42904;SDS011;28550;51.228;4.528;2023-08-07T14:04:35;2.30;;;1.20;;
42904;SDS011;28550;51.228;4.528;2023-08-07T14:07:01;2.60;;;1.20;;
42904;SDS011;28550;51.228;4.528;2023-08-07T14:09:28;1.52;;;0.80;;
42904;SDS011;28550;51.228;4.528;2023-08-07T14:11:54;2.42;;;1.33;;
42904;SDS011;28550;51.228;4.528;2023-08-07T14:14:22;3.50;;;1.70;;
42904;SDS011;28550;51.228;4.528;2023-08-07T14:16:48;1.55;;;1.20;;
42904;SDS011;28550;51.228;4.528;2023-08-07T14:19:14;3.15;;;1.33;;
42904;SDS011;28550;51.228;4.528;2023-08-07T14:21:39;4.85;;;1.45;;
42904;SDS011;28550;51.228;4.528;2023-08-07T14:24:05;4.38;;;1.83;;
42904;SDS011;28550;51.228;4.528;2023-08-07T14:26:31;2.65;;;1.35;;
42904;SDS011;28550;51.228;4.528;2023-08-07T14:28:58;3.33;;;1.55;;
42904;SDS011;28550;51.228;4.528;2023-08-07T14:31:24;10.82;;;2.50;;
42904;SDS011;28550;51.228;4.528;2023-08-07T14:33:50;3.25;;;1.25;;
42904;SDS011;28550;51.228;4.528;2023-08-07T14:36:16;2.50;;;1.23;;
42904;SDS011;28550;51.228;4.528;2023-08-07T14:38:42;3.20;;;1.80;;
42904;SDS011;28550;51.228;4.528;2023-08-07T14:41:08;3.75;;;1.83;;
42904;SDS011;28550;51.228;4.528;2023-08-07T14:43:33;4.57;;;2.00;;
42904;SDS011;28550;51.228;4.528;2023-08-07T14:45:59;4.75;;;1.70;;
42904;SDS011;28550;51.228;4.528;2023-08-07T14:48:25;4.18;;;1.42;;
42904;SDS011;28550;51.228;4.528;2023-08-07T14:50:51;3.25;;;1.40;;
42904;SDS011;28550;51.228;4.528;2023-08-07T14:53:17;4.80;;;1.65;;
42904;SDS011;28550;51.228;4.528;2023-08-07T14:55:43;2.30;;;1.42;;
42904;SDS011;28550;51.228;4.528;2023-08-07T14:58:10;1.35;;;1.00;;
42904;SDS011;28550;51.228;4.528;2023-08-07T15:00:36;3.10;;;1.20;;
42904;SDS011;28550;51.228;4.528;2023-08-07T15:03:02;2.75;;;1.75;;
42904;SDS011;28550;51.228;4.528;2023-08-07T15:05:28;1.90;;;1.10;;
42904;SDS011;28550;51.228;4.528;2023-08-07T15:07:54;2.72;;;1.40;;
42904;SDS011;28550;51.228;4.528;2023-08-07T15:10:19;3.53;;;1.35;;
42904;SDS011;28550;51.228;4.528;2023-08-07T15:12:47;4.25;;;1.50;;
42904;SDS011;28550;51.228;4.528;2023-08-07T15:15:13;4.80;;;1.55;;
42904;SDS011;28550;51.228;4.528;2023-08-07T15:17:38;3.75;;;1.60;;
42904;SDS011;28550;51.228;4.528;2023-08-07T15:20:07;2.78;;;1.42;;
42904;SDS011;28550;51.228;4.528;2023-08-07T15:22:33;2.50;;;1.55;;
42904;SDS011;28550;51.228;4.528;2023-08-07T15:24:59;2.83;;;1.20;;
42904;SDS011;28550;51.228;4.528;2023-08-07T15:27:31;3.30;;;1.33;;
42904;SDS011;28550;51.228;4.528;2023-08-07T15:29:57;1.27;;;1.13;;
42904;SDS011;28550;51.228;4.528;2023-08-07T15:32:22;2.83;;;1.48;;
42904;SDS011;28550;51.228;4.528;2023-08-07T15:34:49;3.17;;;1.58;;
42904;SDS011;28550;51.228;4.528;2023-08-07T15:37:18;3.55;;;1.40;;
42904;SDS011;28550;51.228;4.528;2023-08-07T15:39:43;4.15;;;1.88;;
42904;SDS011;28550;51.228;4.528;2023-08-07T15:42:10;2.92;;;1.48;;
42904;SDS011;28550;51.228;4.528;2023-08-07T15:44:36;4.30;;;1.10;;
42904;SDS011;28550;51.228;4.528;2023-08-07T15:47:03;2.38;;;1.40;;
42904;SDS011;28550;51.228;4.528;2023-08-07T15:49:29;2.65;;;1.50;;
42904;SDS011;28550;51.228;4.528;2023-08-07T15:51:55;2.55;;;1.20;;
42904;SDS011;28550;51.228;4.528;2023-08-07T15:54:21;3.50;;;1.88;;
42904;SDS011;28550;51.228;4.528;2023-08-07T15:56:47;5.38;;;1.85;;
42904;SDS011;28550;51.228;4.528;2023-08-07T15:59:12;4.25;;;2.20;;
42904;SDS011;28550;51.228;4.528;2023-08-07T16:01:40;3.60;;;1.60;;
42904;SDS011;28550;51.228;4.528;2023-08-07T16:04:06;1.85;;;1.60;;
42904;SDS011;28550;51.228;4.528;2023-08-07T16:06:32;4.32;;;1.80;;
42904;SDS011;28550;51.228;4.528;2023-08-07T16:08:58;3.80;;;1.88;;
42904;SDS011;28550;51.228;4.528;2023-08-07T16:11:26;4.90;;;2.28;;
42904;SDS011;28550;51.228;4.528;2023-08-07T16:13:52;6.93;;;2.13;;
42904;SDS011;28550;51.228;4.528;2023-08-07T16:16:18;4.55;;;1.88;;
42904;SDS011;28550;51.228;4.528;2023-08-07T16:18:44;4.10;;;1.50;;
42904;SDS011;28550;51.228;4.528;2023-08-07T16:21:10;5.38;;;2.03;;
42904;SDS011;28550;51.228;4.528;2023-08-07T16:23:38;5.22;;;2.58;;
42904;SDS011;28550;51.228;4.528;2023-08-07T16:26:04;4.55;;;1.83;;
42904;SDS011;28550;51.228;4.528;2023-08-07T16:28:30;3.22;;;1.58;;
42904;SDS011;28550;51.228;4.528;2023-08-07T16:30:56;2.15;;;1.35;;
42904;SDS011;28550;51.228;4.528;2023-08-07T16:33:22;4.80;;;1.58;;
42904;SDS011;28550;51.228;4.528;2023-08-07T16:35:48;5.78;;;2.00;;
42904;SDS011;28550;51.228;4.528;2023-08-07T16:38:13;2.88;;;1.33;;
42904;SDS011;28550;51.228;4.528;2023-08-07T16:40:39;1.83;;;1.30;;
42904;SDS011;28550;51.228;4.528;2023-08-07T16:43:05;2.15;;;1.40;;
42904;SDS011;28550;51.228;4.528;2023-08-07T16:45:32;3.80;;;2.00;;
42904;SDS011;28550;51.228;4.528;2023-08-07T16:47:58;2.50;;;1.85;;
42904;SDS011;28550;51.228;4.528;2023-08-07T16:50:25;2.25;;;1.75;;
42904;SDS011;28550;51.228;4.528;2023-08-07T16:52:53;3.17;;;1.58;;
42904;SDS011;28550;51.228;4.528;2023-08-07T16:55:21;4.38;;;1.80;;
42904;SDS011;28550;51.228;4.528;2023-08-07T16:57:47;1.75;;;1.60;;
42904;SDS011;28550;51.228;4.528;2023-08-07T17:00:13;5.13;;;2.20;;
42904;SDS011;28550;51.228;4.528;2023-08-07T17:02:39;2.22;;;2.03;;
42904;SDS011;28550;51.228;4.528;2023-08-07T17:05:05;3.70;;;1.60;;
42904;SDS011;28550;51.228;4.528;2023-08-07T17:07:31;3.03;;;1.52;;
42904;SDS011;28550;51.228;4.528;2023-08-07T17:09:56;2.22;;;1.90;;
42904;SDS011;28550;51.228;4.528;2023-08-07T17:12:22;3.90;;;1.50;;
42904;SDS011;28550;51.228;4.528;2023-08-07T17:14:48;3.95;;;1.85;;
42904;SDS011;28550;51.228;4.528;2023-08-07T17:17:14;2.58;;;1.63;;
42904;SDS011;28550;51.228;4.528;2023-08-07T17:19:39;2.30;;;1.52;;
42904;SDS011;28550;51.228;4.528;2023-08-07T17:22:05;3.88;;;1.77;;
42904;SDS011;28550;51.228;4.528;2023-08-07T17:24:31;4.75;;;1.90;;
42904;SDS011;28550;51.228;4.528;2023-08-07T17:26:57;3.55;;;1.95;;
42904;SDS011;28550;51.228;4.528;2023-08-07T17:29:22;5.00;;;2.10;;
42904;SDS011;28550;51.228;4.528;2023-08-07T17:31:48;3.30;;;1.90;;
42904;SDS011;28550;51.228;4.528;2023-08-07T17:34:14;2.20;;;1.60;;
42904;SDS011;28550;51.228;4.528;2023-08-07T17:36:41;2.60;;;1.77;;
42904;SDS011;28550;51.228;4.528;2023-08-07T17:39:07;2.05;;;1.80;;
42904;SDS011;28550;51.228;4.528;2023-08-07T17:41:33;5.35;;;2.78;;
42904;SDS011;28550;51.228;4.528;2023-08-07T17:43:59;5.32;;;2.83;;
42904;SDS011;28550;51.228;4.528;2023-08-07T17:46:25;2.45;;;2.03;;
42904;SDS011;28550;51.228;4.528;2023-08-07T17:48:51;4.35;;;2.72;;
42904;SDS011;28550;51.228;4.528;2023-08-07T17:51:17;3.10;;;1.88;;
42904;SDS011;28550;51.228;4.528;2023-08-07T17:53:45;5.95;;;2.08;;
42904;SDS011;28550;51.228;4.528;2023-08-07T17:56:11;4.00;;;1.98;;
42904;SDS011;28550;51.228;4.528;2023-08-07T17:58:37;4.07;;;1.60;;
42904;SDS011;28550;51.228;4.528;2023-08-07T18:01:03;3.55;;;2.17;;
42904;SDS011;28550;51.228;4.528;2023-08-07T18:03:28;3.75;;;1.88;;
42904;SDS011;28550;51.228;4.528;2023-08-07T18:05:54;5.68;;;1.98;;
42904;SDS011;28550;51.228;4.528;2023-08-07T18:08:20;4.93;;;1.83;;